sensor_id;sensor_type;location;lat;lon;timestamp;temperature;humidity
152;DHT22;68;48.792;9.164;2022-09-09T00:01:46;16.90;86.50
152;DHT22;68;48.792;9.164;2022-09-09T00:04:24;16.80;85.30
152;DHT22;68;48.792;9.164;2022-09-09T00:07:00;16.80;86.60
152;DHT22;68;48.792;9.164;2022-09-09T00:09:31;16.80;86.70
152;DHT22;68;48.792;9.164;2022-09-09T00:12:04;16.70;87.30
152;DHT22;68;48.792;9.164;2022-09-09T00:14:39;16.70;86.60
152;DHT22;68;48.792;9.164;2022-09-09T00:17:12;17.00;84.70
152;DHT22;68;48.792;9.164;2022-09-09T00:19:43;17.10;85.20
152;DHT22;68;48.792;9.164;2022-09-09T00:22:20;17.10;84.70
152;DHT22;68;48.792;9.164;2022-09-09T00:24:49;17.00;83.70
152;DHT22;68;48.792;9.164;2022-09-09T00:27:25;17.00;83.80
152;DHT22;68;48.792;9.164;2022-09-09T00:29:56;16.80;83.90
152;DHT22;68;48.792;9.164;2022-09-09T00:32:28;16.90;84.40
152;DHT22;68;48.792;9.164;2022-09-09T00:34:58;17.10;83.60
152;DHT22;68;48.792;9.164;2022-09-09T00:37:26;17.30;82.60
152;DHT22;68;48.792;9.164;2022-09-09T00:39:59;17.40;82.70
152;DHT22;68;48.792;9.164;2022-09-09T00:42:38;17.30;83.90
152;DHT22;68;48.792;9.164;2022-09-09T00:45:18;17.10;83.70
152;DHT22;68;48.792;9.164;2022-09-09T00:47:49;17.10;84.30
152;DHT22;68;48.792;9.164;2022-09-09T00:50:35;17.30;82.90
152;DHT22;68;48.792;9.164;2022-09-09T00:53:20;17.40;82.50
152;DHT22;68;48.792;9.164;2022-09-09T00:55:52;17.60;81.50
152;DHT22;68;48.792;9.164;2022-09-09T00:58:21;17.50;81.80
152;DHT22;68;48.792;9.164;2022-09-09T01:00:51;17.60;82.10
152;DHT22;68;48.792;9.164;2022-09-09T01:03:22;17.70;80.90
152;DHT22;68;48.792;9.164;2022-09-09T01:06:00;17.60;81.70
152;DHT22;68;48.792;9.164;2022-09-09T01:08:57;17.70;82.20
152;DHT22;68;48.792;9.164;2022-09-09T01:11:27;17.70;81.50
152;DHT22;68;48.792;9.164;2022-09-09T01:14:05;17.80;80.60
152;DHT22;68;48.792;9.164;2022-09-09T01:16:36;17.70;80.50
152;DHT22;68;48.792;9.164;2022-09-09T01:19:06;17.70;81.50
152;DHT22;68;48.792;9.164;2022-09-09T01:21:41;17.70;81.20
152;DHT22;68;48.792;9.164;2022-09-09T01:24:22;17.90;79.60
152;DHT22;68;48.792;9.164;2022-09-09T01:26:54;18.10;78.70
152;DHT22;68;48.792;9.164;2022-09-09T01:29:23;18.20;78.20
152;DHT22;68;48.792;9.164;2022-09-09T01:31:54;18.30;79.10
152;DHT22;68;48.792;9.164;2022-09-09T01:34:22;18.40;78.10
152;DHT22;68;48.792;9.164;2022-09-09T01:36:53;18.00;78.80
152;DHT22;68;48.792;9.164;2022-09-09T01:39:23;17.80;78.90
152;DHT22;68;48.792;9.164;2022-09-09T01:41:50;17.60;81.20
152;DHT22;68;48.792;9.164;2022-09-09T01:44:19;17.50;81.90
152;DHT22;68;48.792;9.164;2022-09-09T01:46:46;17.50;81.30
152;DHT22;68;48.792;9.164;2022-09-09T01:49:13;17.50;81.90
152;DHT22;68;48.792;9.164;2022-09-09T01:51:41;17.70;81.40
152;DHT22;68;48.792;9.164;2022-09-09T01:54:08;17.90;80.70
152;DHT22;68;48.792;9.164;2022-09-09T01:56:42;17.90;80.40
152;DHT22;68;48.792;9.164;2022-09-09T01:59:27;17.60;80.40
152;DHT22;68;48.792;9.164;2022-09-09T02:02:08;17.60;81.20
152;DHT22;68;48.792;9.164;2022-09-09T02:04:40;17.50;83.20
152;DHT22;68;48.792;9.164;2022-09-09T02:07:21;17.40;83.30
152;DHT22;68;48.792;9.164;2022-09-09T02:09:58;17.40;82.70
152;DHT22;68;48.792;9.164;2022-09-09T02:12:28;17.50;82.70
152;DHT22;68;48.792;9.164;2022-09-09T02:15:02;17.50;81.80
152;DHT22;68;48.792;9.164;2022-09-09T02:17:33;17.40;82.20
152;DHT22;68;48.792;9.164;2022-09-09T02:20:04;17.40;82.10
152;DHT22;68;48.792;9.164;2022-09-09T02:22:33;17.20;82.40
152;DHT22;68;48.792;9.164;2022-09-09T02:25:01;16.90;84.60
152;DHT22;68;48.792;9.164;2022-09-09T02:27:30;16.70;86.00
152;DHT22;68;48.792;9.164;2022-09-09T02:30:00;16.50;86.40
152;DHT22;68;48.792;9.164;2022-09-09T02:32:29;16.60;86.90
152;DHT22;68;48.792;9.164;2022-09-09T02:35:02;16.60;86.20
152;DHT22;68;48.792;9.164;2022-09-09T02:37:34;16.60;85.50
152;DHT22;68;48.792;9.164;2022-09-09T02:40:03;16.70;86.10
152;DHT22;68;48.792;9.164;2022-09-09T02:42:30;16.80;85.30
152;DHT22;68;48.792;9.164;2022-09-09T02:44:58;16.70;85.30
152;DHT22;68;48.792;9.164;2022-09-09T02:47:30;16.60;84.90
152;DHT22;68;48.792;9.164;2022-09-09T02:50:06;16.60;85.80
152;DHT22;68;48.792;9.164;2022-09-09T02:52:45;16.60;85.60
152;DHT22;68;48.792;9.164;2022-09-09T02:55:18;16.50;86.70
152;DHT22;68;48.792;9.164;2022-09-09T02:57:47;16.40;87.60
152;DHT22;68;48.792;9.164;2022-09-09T03:00:22;16.10;88.90
152;DHT22;68;48.792;9.164;2022-09-09T03:02:50;16.20;88.80
152;DHT22;68;48.792;9.164;2022-09-09T03:05:16;16.50;88.10
152;DHT22;68;48.792;9.164;2022-09-09T03:07:43;16.80;85.90
152;DHT22;68;48.792;9.164;2022-09-09T03:10:10;16.70;85.70
152;DHT22;68;48.792;9.164;2022-09-09T03:12:37;16.30;87.40
152;DHT22;68;48.792;9.164;2022-09-09T03:15:05;16.10;88.90
152;DHT22;68;48.792;9.164;2022-09-09T03:17:33;16.40;88.80
152;DHT22;68;48.792;9.164;2022-09-09T03:20:00;16.60;87.60
152;DHT22;68;48.792;9.164;2022-09-09T03:22:27;16.90;86.00
152;DHT22;68;48.792;9.164;2022-09-09T03:24:53;16.80;86.60
152;DHT22;68;48.792;9.164;2022-09-09T03:27:20;16.80;86.00
152;DHT22;68;48.792;9.164;2022-09-09T03:29:47;16.80;87.40
152;DHT22;68;48.792;9.164;2022-09-09T03:32:16;16.80;87.20
152;DHT22;68;48.792;9.164;2022-09-09T03:34:45;16.70;87.10
152;DHT22;68;48.792;9.164;2022-09-09T03:37:15;16.80;86.30
152;DHT22;68;48.792;9.164;2022-09-09T03:39:44;16.80;86.70
152;DHT22;68;48.792;9.164;2022-09-09T03:42:12;16.60;88.00
152;DHT22;68;48.792;9.164;2022-09-09T03:44:43;16.50;89.00
152;DHT22;68;48.792;9.164;2022-09-09T03:47:10;16.60;88.00
152;DHT22;68;48.792;9.164;2022-09-09T03:49:37;16.70;87.10
152;DHT22;68;48.792;9.164;2022-09-09T03:52:05;16.80;86.50
152;DHT22;68;48.792;9.164;2022-09-09T03:54:32;16.80;87.00
152;DHT22;68;48.792;9.164;2022-09-09T03:56:59;16.90;86.00
152;DHT22;68;48.792;9.164;2022-09-09T03:59:26;16.90;85.50
152;DHT22;68;48.792;9.164;2022-09-09T04:01:53;16.80;86.00
152;DHT22;68;48.792;9.164;2022-09-09T04:04:20;16.50;86.90
152;DHT22;68;48.792;9.164;2022-09-09T04:06:47;16.70;86.90
152;DHT22;68;48.792;9.164;2022-09-09T04:09:17;16.90;85.90
152;DHT22;68;48.792;9.164;2022-09-09T04:11:44;16.80;86.10
152;DHT22;68;48.792;9.164;2022-09-09T04:14:11;16.70;87.90
152;DHT22;68;48.792;9.164;2022-09-09T04:16:38;16.70;88.00
152;DHT22;68;48.792;9.164;2022-09-09T04:19:11;16.70;87.40
152;DHT22;68;48.792;9.164;2022-09-09T04:21:39;16.50;87.40
152;DHT22;68;48.792;9.164;2022-09-09T04:24:06;16.40;89.50
152;DHT22;68;48.792;9.164;2022-09-09T04:26:36;16.40;89.70
152;DHT22;68;48.792;9.164;2022-09-09T04:29:03;16.40;89.10
152;DHT22;68;48.792;9.164;2022-09-09T04:31:31;16.40;89.70
152;DHT22;68;48.792;9.164;2022-09-09T04:33:58;16.20;90.60
152;DHT22;68;48.792;9.164;2022-09-09T04:36:27;16.10;89.50
152;DHT22;68;48.792;9.164;2022-09-09T04:38:54;16.10;90.00
152;DHT22;68;48.792;9.164;2022-09-09T04:41:21;16.20;89.90
152;DHT22;68;48.792;9.164;2022-09-09T04:43:49;16.30;88.80
152;DHT22;68;48.792;9.164;2022-09-09T04:46:19;16.30;89.10
152;DHT22;68;48.792;9.164;2022-09-09T04:48:45;16.50;88.20
152;DHT22;68;48.792;9.164;2022-09-09T04:51:14;16.60;87.00
152;DHT22;68;48.792;9.164;2022-09-09T04:53:41;16.70;87.20
152;DHT22;68;48.792;9.164;2022-09-09T04:56:09;16.50;87.70
152;DHT22;68;48.792;9.164;2022-09-09T04:58:36;16.50;89.10
152;DHT22;68;48.792;9.164;2022-09-09T05:01:09;16.40;88.70
152;DHT22;68;48.792;9.164;2022-09-09T05:03:36;16.20;89.50
152;DHT22;68;48.792;9.164;2022-09-09T05:06:05;16.10;90.40
152;DHT22;68;48.792;9.164;2022-09-09T05:08:33;16.10;90.30
152;DHT22;68;48.792;9.164;2022-09-09T05:11:00;16.10;91.10
152;DHT22;68;48.792;9.164;2022-09-09T05:13:27;16.20;90.60
152;DHT22;68;48.792;9.164;2022-09-09T05:15:56;16.30;89.30
152;DHT22;68;48.792;9.164;2022-09-09T05:18:24;16.30;90.10
152;DHT22;68;48.792;9.164;2022-09-09T05:20:51;16.50;89.60
152;DHT22;68;48.792;9.164;2022-09-09T05:23:18;16.60;89.80
152;DHT22;68;48.792;9.164;2022-09-09T05:25:54;16.70;88.50
152;DHT22;68;48.792;9.164;2022-09-09T05:28:22;16.90;87.00
152;DHT22;68;48.792;9.164;2022-09-09T05:30:56;16.80;87.40
152;DHT22;68;48.792;9.164;2022-09-09T05:33:25;16.70;88.80
152;DHT22;68;48.792;9.164;2022-09-09T05:35:56;16.70;89.70
152;DHT22;68;48.792;9.164;2022-09-09T05:38:23;16.90;87.80
152;DHT22;68;48.792;9.164;2022-09-09T05:40:51;17.10;86.90
152;DHT22;68;48.792;9.164;2022-09-09T05:43:17;17.20;86.60
152;DHT22;68;48.792;9.164;2022-09-09T05:45:45;17.10;87.60
152;DHT22;68;48.792;9.164;2022-09-09T05:48:13;17.20;86.90
152;DHT22;68;48.792;9.164;2022-09-09T05:50:41;17.20;86.10
152;DHT22;68;48.792;9.164;2022-09-09T05:53:10;17.00;85.80
152;DHT22;68;48.792;9.164;2022-09-09T05:55:37;17.00;85.90
152;DHT22;68;48.792;9.164;2022-09-09T05:58:04;17.10;85.80
152;DHT22;68;48.792;9.164;2022-09-09T06:00:30;17.00;87.20
152;DHT22;68;48.792;9.164;2022-09-09T06:02:58;17.00;86.90
152;DHT22;68;48.792;9.164;2022-09-09T06:05:24;17.00;86.70
152;DHT22;68;48.792;9.164;2022-09-09T06:07:54;17.20;86.00
152;DHT22;68;48.792;9.164;2022-09-09T06:10:21;17.30;85.50
152;DHT22;68;48.792;9.164;2022-09-09T06:12:48;17.50;84.90
152;DHT22;68;48.792;9.164;2022-09-09T06:15:14;17.40;84.90
152;DHT22;68;48.792;9.164;2022-09-09T06:17:44;17.30;85.10
152;DHT22;68;48.792;9.164;2022-09-09T06:20:11;17.20;86.10
152;DHT22;68;48.792;9.164;2022-09-09T06:22:39;17.10;86.70
152;DHT22;68;48.792;9.164;2022-09-09T06:25:09;17.20;87.70
152;DHT22;68;48.792;9.164;2022-09-09T06:27:38;17.10;86.60
152;DHT22;68;48.792;9.164;2022-09-09T06:30:05;17.30;86.80
152;DHT22;68;48.792;9.164;2022-09-09T06:32:33;17.30;86.60
152;DHT22;68;48.792;9.164;2022-09-09T06:35:02;17.40;85.70
152;DHT22;68;48.792;9.164;2022-09-09T06:37:29;17.40;86.20
152;DHT22;68;48.792;9.164;2022-09-09T06:39:55;17.40;86.10
152;DHT22;68;48.792;9.164;2022-09-09T06:42:23;17.40;85.30
152;DHT22;68;48.792;9.164;2022-09-09T06:44:52;17.40;86.00
152;DHT22;68;48.792;9.164;2022-09-09T06:47:19;17.50;85.40
152;DHT22;68;48.792;9.164;2022-09-09T06:49:46;17.50;86.80
152;DHT22;68;48.792;9.164;2022-09-09T06:52:12;17.60;85.70
152;DHT22;68;48.792;9.164;2022-09-09T06:54:39;17.70;86.40
152;DHT22;68;48.792;9.164;2022-09-09T06:57:06;17.70;86.00
152;DHT22;68;48.792;9.164;2022-09-09T06:59:34;17.70;85.60
152;DHT22;68;48.792;9.164;2022-09-09T07:02:01;17.70;85.10
152;DHT22;68;48.792;9.164;2022-09-09T07:04:31;17.90;85.10
152;DHT22;68;48.792;9.164;2022-09-09T07:06:57;17.80;85.30
152;DHT22;68;48.792;9.164;2022-09-09T07:09:24;17.70;86.30
152;DHT22;68;48.792;9.164;2022-09-09T07:11:52;17.80;85.60
152;DHT22;68;48.792;9.164;2022-09-09T07:14:19;18.00;86.20
152;DHT22;68;48.792;9.164;2022-09-09T07:16:48;18.20;84.60
152;DHT22;68;48.792;9.164;2022-09-09T07:19:15;18.30;85.10
152;DHT22;68;48.792;9.164;2022-09-09T07:21:42;18.30;85.00
152;DHT22;68;48.792;9.164;2022-09-09T07:24:09;18.30;86.60
152;DHT22;68;48.792;9.164;2022-09-09T07:26:37;18.20;86.00
152;DHT22;68;48.792;9.164;2022-09-09T07:29:04;18.20;85.20
152;DHT22;68;48.792;9.164;2022-09-09T07:31:32;18.30;85.20
152;DHT22;68;48.792;9.164;2022-09-09T07:34:02;18.40;83.30
152;DHT22;68;48.792;9.164;2022-09-09T07:36:31;18.50;83.80
152;DHT22;68;48.792;9.164;2022-09-09T07:38:59;18.50;84.20
152;DHT22;68;48.792;9.164;2022-09-09T07:41:29;18.60;84.10
152;DHT22;68;48.792;9.164;2022-09-09T07:43:57;18.70;83.80
152;DHT22;68;48.792;9.164;2022-09-09T07:46:25;18.90;82.90
152;DHT22;68;48.792;9.164;2022-09-09T07:48:54;19.00;83.00
152;DHT22;68;48.792;9.164;2022-09-09T07:51:24;19.00;82.40
152;DHT22;68;48.792;9.164;2022-09-09T07:53:52;19.00;82.00
152;DHT22;68;48.792;9.164;2022-09-09T07:56:20;19.00;81.70
152;DHT22;68;48.792;9.164;2022-09-09T07:58:48;19.00;81.70
152;DHT22;68;48.792;9.164;2022-09-09T08:01:16;19.00;82.30
152;DHT22;68;48.792;9.164;2022-09-09T08:03:45;19.10;82.90
152;DHT22;68;48.792;9.164;2022-09-09T08:06:12;19.30;81.10
152;DHT22;68;48.792;9.164;2022-09-09T08:08:40;19.40;80.80
152;DHT22;68;48.792;9.164;2022-09-09T08:11:10;19.70;80.60
152;DHT22;68;48.792;9.164;2022-09-09T08:13:38;19.80;80.60
152;DHT22;68;48.792;9.164;2022-09-09T08:16:07;19.90;79.10
152;DHT22;68;48.792;9.164;2022-09-09T08:18:34;20.00;79.30
152;DHT22;68;48.792;9.164;2022-09-09T08:21:08;20.10;77.50
152;DHT22;68;48.792;9.164;2022-09-09T08:23:39;20.20;77.70
152;DHT22;68;48.792;9.164;2022-09-09T08:26:10;20.10;77.30
152;DHT22;68;48.792;9.164;2022-09-09T08:28:38;20.30;77.00
152;DHT22;68;48.792;9.164;2022-09-09T08:31:14;20.50;77.30
152;DHT22;68;48.792;9.164;2022-09-09T08:33:45;20.60;77.30
152;DHT22;68;48.792;9.164;2022-09-09T08:36:14;20.80;75.80
152;DHT22;68;48.792;9.164;2022-09-09T08:38:41;20.90;75.00
152;DHT22;68;48.792;9.164;2022-09-09T08:41:36;21.00;74.80
152;DHT22;68;48.792;9.164;2022-09-09T08:44:07;20.80;75.80
152;DHT22;68;48.792;9.164;2022-09-09T08:46:45;20.90;74.50
152;DHT22;68;48.792;9.164;2022-09-09T08:49:44;21.10;75.40
152;DHT22;68;48.792;9.164;2022-09-09T08:52:18;21.20;74.30
152;DHT22;68;48.792;9.164;2022-09-09T08:54:46;21.30;73.40
152;DHT22;68;48.792;9.164;2022-09-09T08:57:24;21.20;73.30
152;DHT22;68;48.792;9.164;2022-09-09T08:59:52;21.20;73.80
152;DHT22;68;48.792;9.164;2022-09-09T09:02:25;21.40;72.70
152;DHT22;68;48.792;9.164;2022-09-09T09:05:00;21.40;73.40
152;DHT22;68;48.792;9.164;2022-09-09T09:07:44;21.60;72.40
152;DHT22;68;48.792;9.164;2022-09-09T09:10:25;21.70;70.40
152;DHT22;68;48.792;9.164;2022-09-09T09:12:58;21.90;70.50
152;DHT22;68;48.792;9.164;2022-09-09T09:15:30;21.60;70.30
152;DHT22;68;48.792;9.164;2022-09-09T09:17:57;21.40;69.40
152;DHT22;68;48.792;9.164;2022-09-09T09:20:34;21.40;69.90
152;DHT22;68;48.792;9.164;2022-09-09T09:23:05;21.30;71.10
152;DHT22;68;48.792;9.164;2022-09-09T09:25:35;21.10;72.90
152;DHT22;68;48.792;9.164;2022-09-09T09:28:15;20.90;76.60
152;DHT22;68;48.792;9.164;2022-09-09T09:30:48;20.80;75.80
152;DHT22;68;48.792;9.164;2022-09-09T09:33:20;20.60;77.30
152;DHT22;68;48.792;9.164;2022-09-09T09:35:49;20.60;76.80
152;DHT22;68;48.792;9.164;2022-09-09T09:38:18;20.30;77.20
152;DHT22;68;48.792;9.164;2022-09-09T09:40:49;20.10;76.80
152;DHT22;68;48.792;9.164;2022-09-09T09:43:21;19.80;76.20
152;DHT22;68;48.792;9.164;2022-09-09T09:45:50;19.90;75.60
152;DHT22;68;48.792;9.164;2022-09-09T09:48:16;19.90;74.20
152;DHT22;68;48.792;9.164;2022-09-09T09:50:49;20.00;74.70
152;DHT22;68;48.792;9.164;2022-09-09T09:53:21;20.30;72.90
152;DHT22;68;48.792;9.164;2022-09-09T09:55:54;20.50;73.70
152;DHT22;68;48.792;9.164;2022-09-09T09:58:23;20.70;71.80
152;DHT22;68;48.792;9.164;2022-09-09T10:00:52;20.90;71.20
152;DHT22;68;48.792;9.164;2022-09-09T10:03:25;21.20;69.70
152;DHT22;68;48.792;9.164;2022-09-09T10:05:53;21.40;69.80
152;DHT22;68;48.792;9.164;2022-09-09T10:08:20;21.60;69.20
152;DHT22;68;48.792;9.164;2022-09-09T10:10:59;21.80;70.20
152;DHT22;68;48.792;9.164;2022-09-09T10:13:37;21.70;69.80
152;DHT22;68;48.792;9.164;2022-09-09T10:16:17;21.70;70.20
152;DHT22;68;48.792;9.164;2022-09-09T10:18:58;21.90;70.50
152;DHT22;68;48.792;9.164;2022-09-09T10:21:56;22.10;69.50
152;DHT22;68;48.792;9.164;2022-09-09T10:24:52;22.20;68.50
152;DHT22;68;48.792;9.164;2022-09-09T10:27:23;22.30;68.50
152;DHT22;68;48.792;9.164;2022-09-09T10:30:04;22.60;67.90
152;DHT22;68;48.792;9.164;2022-09-09T10:32:41;22.70;68.00
152;DHT22;68;48.792;9.164;2022-09-09T10:35:14;22.70;68.30
152;DHT22;68;48.792;9.164;2022-09-09T10:37:58;22.90;69.40
152;DHT22;68;48.792;9.164;2022-09-09T10:40:32;23.20;67.90
152;DHT22;68;48.792;9.164;2022-09-09T10:43:07;23.20;67.50
152;DHT22;68;48.792;9.164;2022-09-09T10:45:45;23.30;66.40
152;DHT22;68;48.792;9.164;2022-09-09T10:48:31;23.20;66.50
152;DHT22;68;48.792;9.164;2022-09-09T10:51:14;23.00;67.80
152;DHT22;68;48.792;9.164;2022-09-09T10:53:53;22.90;68.10
152;DHT22;68;48.792;9.164;2022-09-09T10:56:26;22.90;66.70
152;DHT22;68;48.792;9.164;2022-09-09T10:58:56;23.10;66.70
152;DHT22;68;48.792;9.164;2022-09-09T11:01:29;23.40;67.60
152;DHT22;68;48.792;9.164;2022-09-09T11:04:01;23.50;68.90
152;DHT22;68;48.792;9.164;2022-09-09T11:06:34;23.90;66.70
152;DHT22;68;48.792;9.164;2022-09-09T11:09:03;24.20;65.60
152;DHT22;68;48.792;9.164;2022-09-09T11:11:35;24.30;63.50
152;DHT22;68;48.792;9.164;2022-09-09T11:14:08;23.70;64.70
152;DHT22;68;48.792;9.164;2022-09-09T11:16:41;23.30;65.70
152;DHT22;68;48.792;9.164;2022-09-09T11:19:14;22.60;65.80
152;DHT22;68;48.792;9.164;2022-09-09T11:21:46;22.40;65.70
152;DHT22;68;48.792;9.164;2022-09-09T11:24:18;22.10;66.50
152;DHT22;68;48.792;9.164;2022-09-09T11:26:50;21.90;65.90
152;DHT22;68;48.792;9.164;2022-09-09T11:29:35;21.70;66.30
152;DHT22;68;48.792;9.164;2022-09-09T11:32:15;21.30;65.10
152;DHT22;68;48.792;9.164;2022-09-09T11:34:53;21.60;65.30
152;DHT22;68;48.792;9.164;2022-09-09T11:37:45;21.30;67.20
152;DHT22;68;48.792;9.164;2022-09-09T11:40:23;21.40;67.20
152;DHT22;68;48.792;9.164;2022-09-09T11:43:01;21.20;68.10
152;DHT22;68;48.792;9.164;2022-09-09T11:45:30;21.20;68.50
152;DHT22;68;48.792;9.164;2022-09-09T11:48:00;21.10;69.40
152;DHT22;68;48.792;9.164;2022-09-09T11:50:30;21.20;69.70
152;DHT22;68;48.792;9.164;2022-09-09T11:53:19;21.10;70.00
152;DHT22;68;48.792;9.164;2022-09-09T11:56:01;21.00;69.70
152;DHT22;68;48.792;9.164;2022-09-09T11:58:38;20.90;70.90
152;DHT22;68;48.792;9.164;2022-09-09T12:04:32;20.90;71.00
152;DHT22;68;48.792;9.164;2022-09-09T12:07:01;20.90;69.90
152;DHT22;68;48.792;9.164;2022-09-09T12:09:55;21.10;67.40
152;DHT22;68;48.792;9.164;2022-09-09T12:12:29;21.60;66.90
152;DHT22;68;48.792;9.164;2022-09-09T12:17:42;22.20;65.30
152;DHT22;68;48.792;9.164;2022-09-09T12:20:13;22.50;65.80
152;DHT22;68;48.792;9.164;2022-09-09T12:22:48;23.20;64.50
152;DHT22;68;48.792;9.164;2022-09-09T12:25:26;23.70;62.10
152;DHT22;68;48.792;9.164;2022-09-09T12:28:04;24.30;61.60
152;DHT22;68;48.792;9.164;2022-09-09T12:30:37;24.60;58.20
152;DHT22;68;48.792;9.164;2022-09-09T12:33:11;24.30;58.90
152;DHT22;68;48.792;9.164;2022-09-09T12:35:42;24.90;59.10
152;DHT22;68;48.792;9.164;2022-09-09T12:38:13;25.10;57.80
152;DHT22;68;48.792;9.164;2022-09-09T12:40:41;25.10;57.20
152;DHT22;68;48.792;9.164;2022-09-09T12:43:18;25.20;56.30
152;DHT22;68;48.792;9.164;2022-09-09T12:45:47;25.10;56.40
152;DHT22;68;48.792;9.164;2022-09-09T12:48:18;24.60;57.10
152;DHT22;68;48.792;9.164;2022-09-09T12:50:49;24.40;58.10
152;DHT22;68;48.792;9.164;2022-09-09T12:53:21;23.80;58.40
152;DHT22;68;48.792;9.164;2022-09-09T12:55:51;23.30;60.70
152;DHT22;68;48.792;9.164;2022-09-09T12:58:19;23.10;61.30
152;DHT22;68;48.792;9.164;2022-09-09T13:00:50;23.20;62.40
152;DHT22;68;48.792;9.164;2022-09-09T13:03:19;23.30;61.50
152;DHT22;68;48.792;9.164;2022-09-09T13:05:49;23.70;60.60
152;DHT22;68;48.792;9.164;2022-09-09T13:08:17;23.70;60.50
152;DHT22;68;48.792;9.164;2022-09-09T13:10:49;23.80;60.30
152;DHT22;68;48.792;9.164;2022-09-09T13:13:22;23.80;60.70
152;DHT22;68;48.792;9.164;2022-09-09T13:15:51;23.70;61.20
152;DHT22;68;48.792;9.164;2022-09-09T13:18:22;23.80;60.80
152;DHT22;68;48.792;9.164;2022-09-09T13:20:51;23.80;60.40
152;DHT22;68;48.792;9.164;2022-09-09T13:23:19;23.90;60.80
152;DHT22;68;48.792;9.164;2022-09-09T13:25:57;23.90;60.70
152;DHT22;68;48.792;9.164;2022-09-09T13:28:26;23.90;61.30
152;DHT22;68;48.792;9.164;2022-09-09T13:30:57;23.90;61.70
152;DHT22;68;48.792;9.164;2022-09-09T13:33:31;23.80;62.80
152;DHT22;68;48.792;9.164;2022-09-09T13:36:02;23.80;63.60
152;DHT22;68;48.792;9.164;2022-09-09T13:38:32;23.60;61.30
152;DHT22;68;48.792;9.164;2022-09-09T13:41:01;23.60;62.40
152;DHT22;68;48.792;9.164;2022-09-09T13:43:31;23.70;61.50
152;DHT22;68;48.792;9.164;2022-09-09T13:46:01;23.40;61.70
152;DHT22;68;48.792;9.164;2022-09-09T13:48:28;23.40;61.80
152;DHT22;68;48.792;9.164;2022-09-09T13:51:02;23.30;60.60
152;DHT22;68;48.792;9.164;2022-09-09T13:53:31;23.10;60.40
152;DHT22;68;48.792;9.164;2022-09-09T13:56:00;23.00;61.00
152;DHT22;68;48.792;9.164;2022-09-09T13:58:26;23.10;60.70
152;DHT22;68;48.792;9.164;2022-09-09T14:00:53;23.40;60.30
152;DHT22;68;48.792;9.164;2022-09-09T14:03:20;23.60;59.10
152;DHT22;68;48.792;9.164;2022-09-09T14:05:48;23.90;59.70
152;DHT22;68;48.792;9.164;2022-09-09T14:08:24;24.00;58.80
152;DHT22;68;48.792;9.164;2022-09-09T14:10:51;23.90;59.00
152;DHT22;68;48.792;9.164;2022-09-09T14:13:21;23.80;57.90
152;DHT22;68;48.792;9.164;2022-09-09T14:15:48;24.00;58.60
152;DHT22;68;48.792;9.164;2022-09-09T14:18:16;23.90;57.70
152;DHT22;68;48.792;9.164;2022-09-09T14:20:44;23.70;58.90
152;DHT22;68;48.792;9.164;2022-09-09T14:23:12;23.50;58.70
152;DHT22;68;48.792;9.164;2022-09-09T14:25:43;23.10;60.00
152;DHT22;68;48.792;9.164;2022-09-09T14:28:11;23.00;60.00
152;DHT22;68;48.792;9.164;2022-09-09T14:30:40;22.90;58.40
152;DHT22;68;48.792;9.164;2022-09-09T14:33:07;22.90;59.50
152;DHT22;68;48.792;9.164;2022-09-09T14:35:34;23.10;59.70
152;DHT22;68;48.792;9.164;2022-09-09T14:38:01;23.00;59.00
152;DHT22;68;48.792;9.164;2022-09-09T14:40:28;22.80;59.30
152;DHT22;68;48.792;9.164;2022-09-09T14:42:57;22.80;59.40
152;DHT22;68;48.792;9.164;2022-09-09T14:45:24;22.90;58.40
152;DHT22;68;48.792;9.164;2022-09-09T14:47:52;22.70;58.90
152;DHT22;68;48.792;9.164;2022-09-09T14:50:19;22.70;59.40
152;DHT22;68;48.792;9.164;2022-09-09T14:52:47;22.90;59.30
152;DHT22;68;48.792;9.164;2022-09-09T14:55:14;23.00;58.70
152;DHT22;68;48.792;9.164;2022-09-09T14:57:41;23.00;60.60
152;DHT22;68;48.792;9.164;2022-09-09T15:00:10;22.90;58.30
152;DHT22;68;48.792;9.164;2022-09-09T15:02:37;22.80;58.60
152;DHT22;68;48.792;9.164;2022-09-09T15:05:05;22.80;59.90
152;DHT22;68;48.792;9.164;2022-09-09T15:07:32;22.40;61.00
152;DHT22;68;48.792;9.164;2022-09-09T15:09:59;22.50;59.30
152;DHT22;68;48.792;9.164;2022-09-09T15:12:26;22.40;60.30
152;DHT22;68;48.792;9.164;2022-09-09T15:14:54;22.50;59.40
152;DHT22;68;48.792;9.164;2022-09-09T15:17:22;22.30;59.80
152;DHT22;68;48.792;9.164;2022-09-09T15:19:52;22.20;60.50
152;DHT22;68;48.792;9.164;2022-09-09T15:22:20;22.30;61.10
152;DHT22;68;48.792;9.164;2022-09-09T15:24:47;22.50;60.50
152;DHT22;68;48.792;9.164;2022-09-09T15:27:13;22.70;59.60
152;DHT22;68;48.792;9.164;2022-09-09T15:29:41;22.70;59.50
152;DHT22;68;48.792;9.164;2022-09-09T15:32:09;22.70;59.10
152;DHT22;68;48.792;9.164;2022-09-09T15:34:37;22.60;60.10
152;DHT22;68;48.792;9.164;2022-09-09T15:37:05;22.70;59.70
152;DHT22;68;48.792;9.164;2022-09-09T15:39:32;22.50;60.90
152;DHT22;68;48.792;9.164;2022-09-09T15:41:59;22.30;61.40
152;DHT22;68;48.792;9.164;2022-09-09T15:44:26;22.40;62.10
152;DHT22;68;48.792;9.164;2022-09-09T15:46:53;22.30;62.30
152;DHT22;68;48.792;9.164;2022-09-09T15:49:21;22.20;62.60
152;DHT22;68;48.792;9.164;2022-09-09T15:51:52;22.10;62.60
152;DHT22;68;48.792;9.164;2022-09-09T15:54:21;21.90;61.10
152;DHT22;68;48.792;9.164;2022-09-09T15:56:51;22.10;62.40
152;DHT22;68;48.792;9.164;2022-09-09T15:59:20;22.20;61.70
152;DHT22;68;48.792;9.164;2022-09-09T16:01:47;22.30;63.70
152;DHT22;68;48.792;9.164;2022-09-09T16:04:16;22.10;64.80
152;DHT22;68;48.792;9.164;2022-09-09T16:06:49;21.70;65.40
152;DHT22;68;48.792;9.164;2022-09-09T16:09:17;21.60;64.30
152;DHT22;68;48.792;9.164;2022-09-09T16:11:44;21.70;65.10
152;DHT22;68;48.792;9.164;2022-09-09T16:14:11;21.60;63.90
152;DHT22;68;48.792;9.164;2022-09-09T16:16:38;21.50;62.60
152;DHT22;68;48.792;9.164;2022-09-09T16:19:08;21.40;64.10
152;DHT22;68;48.792;9.164;2022-09-09T16:21:37;21.50;63.30
152;DHT22;68;48.792;9.164;2022-09-09T16:24:06;21.50;62.40
152;DHT22;68;48.792;9.164;2022-09-09T16:26:36;21.60;62.40
152;DHT22;68;48.792;9.164;2022-09-09T16:29:03;21.50;63.30
152;DHT22;68;48.792;9.164;2022-09-09T16:31:31;21.40;64.80
152;DHT22;68;48.792;9.164;2022-09-09T16:33:58;21.40;63.50
152;DHT22;68;48.792;9.164;2022-09-09T16:36:26;21.30;64.50
152;DHT22;68;48.792;9.164;2022-09-09T16:38:53;21.10;65.50
152;DHT22;68;48.792;9.164;2022-09-09T16:41:21;20.90;66.10
152;DHT22;68;48.792;9.164;2022-09-09T16:43:52;20.70;66.50
152;DHT22;68;48.792;9.164;2022-09-09T16:46:19;20.70;66.70
152;DHT22;68;48.792;9.164;2022-09-09T16:48:47;20.60;66.40
152;DHT22;68;48.792;9.164;2022-09-09T16:51:16;20.60;66.40
152;DHT22;68;48.792;9.164;2022-09-09T16:53:44;20.40;67.00
152;DHT22;68;48.792;9.164;2022-09-09T16:56:13;20.30;66.00
152;DHT22;68;48.792;9.164;2022-09-09T16:58:40;20.00;68.60
152;DHT22;68;48.792;9.164;2022-09-09T17:01:10;19.90;70.10
152;DHT22;68;48.792;9.164;2022-09-09T17:03:40;19.80;73.50
152;DHT22;68;48.792;9.164;2022-09-09T17:06:09;19.90;70.90
152;DHT22;68;48.792;9.164;2022-09-09T17:08:36;19.80;72.50
152;DHT22;68;48.792;9.164;2022-09-09T17:11:02;19.90;71.80
152;DHT22;68;48.792;9.164;2022-09-09T17:13:31;19.80;69.80
152;DHT22;68;48.792;9.164;2022-09-09T17:15:58;19.90;69.70
152;DHT22;68;48.792;9.164;2022-09-09T17:18:26;19.90;70.40
152;DHT22;68;48.792;9.164;2022-09-09T17:20:54;20.00;69.40